Time;durP1;ratioP1;P1;durP2;ratioP2;P2;SDS_P1;SDS_P2;PMS_P1;PMS_P2;Temp;Humidity;BMP_temperature;BMP_pressure;BME280_temperature;BME280_humidity;BME280_pressure;Samples;Min_cycle;Max_cycle;Signal;HPM_P1;HPM_P2
2023/06/23 17:13:24;;;;;;;26.42;16.00;;;;;;;16.22;100.00;102119.13;5090456;27;20168;-53
2023/06/23 17:15:51;;;;;;;26.05;16.02;;;;;;;16.30;100.00;102116.94;5085632;28;20153;-55
2023/06/23 17:18:18;;;;;;;37.60;18.90;;;;;;;16.43;100.00;102124.34;5088695;28;20132;-54
2023/06/23 17:20:44;;;;;;;27.30;16.80;;;;;;;16.49;100.00;102121.38;5087099;28;20127;-54
2023/06/23 17:23:11;;;;;;;29.35;17.23;;;;;;;16.62;100.00;102125.16;5088620;28;20044;-54
2023/06/23 17:25:38;;;;;;;28.58;17.88;;;;;;;16.67;100.00;102130.28;5089175;28;20052;-54
2023/06/23 17:28:04;;;;;;;34.55;16.90;;;;;;;16.69;100.00;102128.44;5089344;28;20054;-53
2023/06/23 17:30:31;;;;;;;28.23;16.33;;;;;;;16.73;100.00;102134.47;5082168;28;20121;-54
2023/06/23 17:32:57;;;;;;;32.90;17.23;;;;;;;16.75;100.00;102129.91;5076200;28;20463;-54
2023/06/23 17:35:24;;;;;;;29.92;17.02;;;;;;;16.80;100.00;102141.22;5075178;28;20059;-54
2023/06/23 17:37:50;;;;;;;28.42;17.08;;;;;;;16.80;100.00;102141.22;5087818;28;20044;-56
2023/06/23 17:40:23;;;;;;;26.73;16.92;;;;;;;16.81;100.00;102135.81;5086173;28;20058;-53
2023/06/23 17:42:50;;;;;;;30.85;15.95;;;;;;;16.82;100.00;102134.88;5077151;28;20064;-54
2023/06/23 17:45:17;;;;;;;28.10;17.73;;;;;;;16.81;100.00;102143.81;5072963;28;20538;-53
2023/06/23 17:47:43;;;;;;;32.65;17.50;;;;;;;16.76;100.00;102145.84;5078534;28;20059;-54
2023/06/23 17:50:10;;;;;;;24.00;15.55;;;;;;;16.76;100.00;102142.34;5078148;28;20056;-53
2023/06/23 17:52:37;;;;;;;31.10;16.73;;;;;;;16.77;100.00;102147.59;5074976;28;20052;-53
2023/06/23 17:55:05;;;;;;;23.10;16.40;;;;;;;16.75;100.00;102149.47;5078877;28;20082;-53
2023/06/23 17:57:31;;;;;;;22.50;15.48;;;;;;;16.73;100.00;102155.84;5079059;28;20048;-53
2023/06/23 17:59:58;;;;;;;29.52;15.98;;;;;;;16.77;100.00;102162.72;5075980;28;20053;-54
2023/06/23 18:02:25;;;;;;;24.88;16.05;;;;;;;16.79;100.00;102163.53;5081366;28;20044;-53
2023/06/23 18:04:53;;;;;;;28.00;15.73;;;;;;;16.75;100.00;102167.28;5078991;28;20063;-53
2023/06/23 18:07:20;;;;;;;63.47;16.08;;;;;;;16.72;100.00;102168.28;5081382;28;20448;-54
2023/06/23 18:09:47;;;;;;;21.48;13.20;;;;;;;16.70;100.00;102168.38;5080770;28;20161;-53
2023/06/23 18:12:13;;;;;;;22.27;14.38;;;;;;;16.75;100.00;102176.16;5092626;28;20056;-55
2023/06/23 18:14:40;;;;;;;23.95;14.25;;;;;;;16.69;100.00;102177.34;5097817;28;20058;-52
2023/06/23 18:17:07;;;;;;;22.13;14.18;;;;;;;16.73;100.00;102183.38;5086974;28;20080;-53
2023/06/23 18:19:34;;;;;;;20.08;14.05;;;;;;;16.67;100.00;102184.56;5087583;28;20083;-55
2023/06/23 18:22:01;;;;;;;25.67;14.13;;;;;;;16.63;100.00;102190.97;5104132;28;20055;-54
2023/06/23 18:24:28;;;;;;;27.35;14.43;;;;;;;16.60;100.00;102183.09;5092794;28;20056;-53
2023/06/23 18:26:54;;;;;;;23.13;13.18;;;;;;;16.62;100.00;102197.25;5091041;28;20104;-53
2023/06/23 18:29:21;;;;;;;22.20;13.98;;;;;;;16.60;100.00;102199.13;5087946;28;20164;-53
2023/06/23 18:31:52;;;;;;;21.63;14.27;;;;;;;16.61;100.00;102199.97;5087095;28;20134;-54
2023/06/23 18:34:19;;;;;;;36.08;18.90;;;;;;;16.67;100.00;102203.25;5087818;28;20044;-54
2023/06/23 18:36:55;;;;;;;22.58;15.20;;;;;;;16.67;100.00;102210.38;5094964;28;20048;-54
2023/06/23 18:39:22;;;;;;;25.50;14.38;;;;;;;16.63;100.00;102203.47;5077503;28;20072;-54
2023/06/23 18:41:49;;;;;;;25.40;15.90;;;;;;;16.68;100.00;102207.63;5088834;28;20131;-54
2023/06/23 18:44:17;;;;;;;23.33;15.15;;;;;;;16.69;100.00;102209.38;5081554;28;20064;-54
2023/06/23 18:46:43;;;;;;;23.83;15.63;;;;;;;16.71;100.00;102211.97;5081835;28;20062;-54
2023/06/23 18:49:10;;;;;;;22.73;15.32;;;;;;;16.66;100.00;102204.19;5070197;28;20521;-55
2023/06/23 18:51:38;;;;;;;25.05;13.82;;;;;;;16.61;100.00;102200.88;5082357;28;20449;-54
2023/06/23 18:54:05;;;;;;;27.00;15.93;;;;;;;16.68;100.00;102207.63;5080849;28;20480;-54
2023/06/23 18:56:32;;;;;;;26.67;15.25;;;;;;;16.67;100.00;102197.03;5084006;28;20049;-54
2023/06/23 18:58:59;;;;;;;25.45;15.52;;;;;;;16.69;100.00;102217.38;5090405;28;20052;-54
2023/06/23 19:01:26;;;;;;;22.70;14.88;;;;;;;16.67;100.00;102215.72;5084148;28;20110;-54
2023/06/23 19:03:52;;;;;;;25.67;15.85;;;;;;;16.66;100.00;102219.34;5083830;28;20094;-54
2023/06/23 19:06:19;;;;;;;24.92;14.90;;;;;;;16.72;100.00;102223.50;5080568;28;20052;-54
2023/06/23 19:08:46;;;;;;;23.70;16.00;;;;;;;16.67;100.00;102221.94;5083334;28;20052;-54
2023/06/23 19:11:13;;;;;;;29.00;17.60;;;;;;;16.69;100.00;102224.53;5067881;28;20060;-55
2023/06/23 19:13:40;;;;;;;26.10;14.93;;;;;;;16.67;100.00;102221.94;5087853;28;20040;-55
2023/06/23 19:16:06;;;;;;;25.13;16.20;;;;;;;16.66;100.00;102224.69;5081842;28;20108;-55
2023/06/23 19:18:33;;;;;;;24.10;15.18;;;;;;;16.70;100.00;102228.91;5084521;28;20059;-55
2023/06/23 19:21:00;;;;;;;22.27;15.30;;;;;;;16.68;100.00;102223.66;5086657;28;20543;-55
2023/06/23 19:23:27;;;;;;;26.35;15.95;;;;;;;16.67;100.00;102226.38;5085405;28;20101;-55
2023/06/23 19:25:54;;;;;;;28.38;17.33;;;;;;;16.67;100.00;102232.63;5090737;28;20052;-55
2023/06/23 19:28:21;;;;;;;29.10;16.98;;;;;;;16.73;100.00;102242.13;5081106;28;20052;-55
2023/06/23 19:30:48;;;;;;;25.05;16.65;;;;;;;16.76;100.00;102235.78;5086711;28;20582;-55
2023/06/23 19:33:14;;;;;;;30.38;18.52;;;;;;;16.81;100.00;102242.63;5085923;28;20601;-55
2023/06/23 19:35:41;;;;;;;34.83;18.13;;;;;;;16.80;100.00;102248.03;5084232;28;20048;-55
2023/06/23 19:38:08;;;;;;;34.17;19.15;;;;;;;16.83;100.00;102253.22;5083161;28;20048;-55
2023/06/23 19:40:35;;;;;;;26.80;17.17;;;;;;;16.87;100.00;102254.84;5094761;28;20387;-55
2023/06/23 19:43:02;;;;;;;27.15;17.85;;;;;;;16.83;100.00;102253.22;5081842;28;20395;-55
2023/06/23 19:45:29;;;;;;;38.78;19.13;;;;;;;16.79;100.00;102257.84;5063691;28;20044;-55
2023/06/23 19:47:56;;;;;;;26.83;17.50;;;;;;;16.80;100.00;102258.72;5082564;28;20048;-55
2023/06/23 19:50:22;;;;;;;25.75;16.63;;;;;;;16.80;100.00;102264.06;5082053;28;20056;-55
2023/06/23 19:52:49;;;;;;;29.23;17.67;;;;;;;16.76;100.00;102267.81;5082085;28;20106;-55
2023/06/23 19:55:16;;;;;;;29.00;17.13;;;;;;;16.74;100.00;102275.00;5067462;28;20056;-55
2023/06/23 19:57:48;;;;;;;34.47;18.75;;;;;;;16.73;100.00;102273.31;5087334;28;20059;-55
2023/06/23 20:00:16;;;;;;;27.25;15.85;;;;;;;16.74;100.00;102281.25;5088324;28;20131;-55
2023/06/23 20:02:43;;;;;;;28.13;17.48;;;;;;;16.71;100.00;102281.38;5083801;28;20040;-55
2023/06/23 20:05:10;;;;;;;27.83;16.75;;;;;;;16.67;100.00;102291.34;5083761;28;20059;-55
2023/06/23 20:07:38;;;;;;;28.20;16.58;;;;;;;16.63;100.00;102284.41;5088492;28;20040;-55
2023/06/23 20:10:06;;;;;;;22.63;15.32;;;;;;;16.64;100.00;102280.81;5080877;28;20130;-55
2023/06/23 20:12:33;;;;;;;24.00;14.75;;;;;;;16.62;100.00;102282.66;5071205;28;20043;-55
2023/06/23 20:15:00;;;;;;;23.33;15.32;;;;;;;16.59;100.00;102285.50;5083175;28;20044;-54
2023/06/23 20:17:27;;;;;;;26.05;16.40;;;;;;;16.57;100.00;102290.03;5098552;28;20075;-55
2023/06/23 20:19:53;;;;;;;28.25;15.75;;;;;;;16.52;100.00;102290.22;5085455;28;20693;-54
2023/06/23 20:22:20;;;;;;;30.17;15.07;;;;;;;16.53;100.00;102293.78;5082180;28;20140;-55
2023/06/23 20:24:46;;;;;;;29.55;15.85;;;;;;;16.52;100.00;102300.06;5083358;28;20054;-55
2023/06/23 20:27:13;;;;;;;19.05;13.75;;;;;;;16.49;100.00;102292.19;5087803;28;20456;-55
2023/06/23 20:29:40;;;;;;;24.40;15.70;;;;;;;16.50;100.00;102300.13;5067223;28;20046;-55
2023/06/23 20:32:08;;;;;;;22.77;14.13;;;;;;;16.44;100.00;102304.88;5079837;28;20465;-55
2023/06/23 20:34:34;;;;;;;23.10;12.93;;;;;;;16.42;100.00;102304.09;5088655;28;20050;-55
2023/06/23 20:37:01;;;;;;;23.10;13.68;;;;;;;16.40;100.00;102304.16;5086958;28;20045;-54
2023/06/23 20:39:28;;;;;;;26.30;13.70;;;;;;;16.41;100.00;102310.34;5083336;28;20139;-55
2023/06/23 20:41:54;;;;;;;21.70;13.88;;;;;;;16.41;100.00;102315.69;5081730;28;20140;-55
2023/06/23 20:44:21;;;;;;;21.40;12.73;;;;;;;16.33;100.00;102319.59;5080165;28;20039;-55
2023/06/23 20:46:48;;;;;;;22.58;13.82;;;;;;;16.32;100.00;102325.84;5093424;28;20048;-54
2023/06/23 20:49:15;;;;;;;20.52;12.88;;;;;;;16.27;100.00;102330.53;5083683;28;20139;-53
2023/06/23 20:51:44;;;;;;;29.00;15.00;;;;;;;16.25;100.00;102332.41;5079182;28;20048;-53
2023/06/23 20:54:10;;;;;;;19.10;11.20;;;;;;;16.24;100.00;102327.13;5086194;28;20052;-54
2023/06/23 20:56:37;;;;;;;20.50;11.95;;;;;;;16.17;100.00;102339.88;5084075;28;20341;-54
2023/06/23 20:59:04;;;;;;;17.05;10.93;;;;;;;16.12;100.00;102339.22;5087259;28;20475;-55
2023/06/23 21:01:31;;;;;;;20.58;11.80;;;;;;;16.12;100.00;102341.88;5081781;28;20052;-54
2023/06/23 21:03:57;;;;;;;17.13;11.30;;;;;;;16.11;100.00;102338.34;5082541;28;20063;-54
2023/06/23 21:06:24;;;;;;;18.25;12.05;;;;;;;16.10;100.00;102343.72;5092005;28;20048;-54
2023/06/23 21:08:51;;;;;;;14.15;10.38;;;;;;;16.10;100.00;102351.72;5084516;28;20052;-54
2023/06/23 21:11:18;;;;;;;18.30;10.27;;;;;;;16.03;100.00;102347.63;5069946;28;20064;-54
2023/06/23 21:13:44;;;;;;;17.88;11.07;;;;;;;16.06;100.00;102359.00;5079850;28;20037;-54
2023/06/23 21:16:11;;;;;;;17.52;10.63;;;;;;;16.00;100.00;102347.75;5079637;28;20429;-54
2023/06/23 21:18:38;;;;;;;17.27;11.23;;;;;;;15.96;100.00;102352.34;5061259;28;20097;-54
2023/06/23 21:21:05;;;;;;;16.42;11.13;;;;;;;16.00;100.00;102353.06;5088023;28;20076;-54
2023/06/23 21:23:31;;;;;;;13.68;10.57;;;;;;;16.01;100.00;102366.34;5093107;28;20127;-55
2023/06/23 21:25:58;;;;;;;14.15;10.27;;;;;;;16.03;100.00;102368.94;5090797;28;20128;-54
2023/06/23 21:28:25;;;;;;;18.27;11.07;;;;;;;16.00;100.00;102372.59;5093023;28;20116;-54
2023/06/23 21:30:52;;;;;;;15.63;10.38;;;;;;;16.01;100.00;102376.16;5103218;28;20418;-55
2023/06/23 21:33:18;;;;;;;16.65;11.38;;;;;;;15.98;100.00;102373.63;5060444;28;20136;-54
2023/06/23 21:35:46;;;;;;;20.02;11.27;;;;;;;15.95;100.00;102372.81;5092416;28;20357;-55
2023/06/23 21:38:13;;;;;;;19.98;11.95;;;;;;;15.99;100.00;102375.31;5094028;28;20054;-55
2023/06/23 21:40:41;;;;;;;25.85;11.80;;;;;;;15.92;100.00;102372.94;5096432;28;20076;-55
2023/06/23 21:43:09;;;;;;;19.70;11.25;;;;;;;15.93;100.00;102384.47;5062485;28;20055;-55
2023/06/23 21:45:36;;;;;;;16.80;11.15;;;;;;;15.96;100.00;102392.34;5072383;28;20076;-55
2023/06/23 21:48:04;;;;;;;17.73;11.18;;;;;;;15.90;100.00;102385.44;5104877;28;20139;-55
2023/06/23 21:50:30;;;;;;;21.33;11.93;;;;;;;15.90;100.00;102396.13;5092652;28;20105;-56
2023/06/23 21:52:58;;;;;;;20.42;12.05;;;;;;;15.86;100.00;102394.53;5095298;28;20042;-56
2023/06/23 21:55:25;;;;;;;28.33;13.65;;;;;;;15.85;100.00;102403.44;5102305;28;20135;-55
2023/06/23 21:57:51;;;;;;;17.17;12.10;;;;;;;15.83;100.00;102405.31;5093833;28;20131;-55
2023/06/23 22:00:18;;;;;;;22.75;14.15;;;;;;;15.81;100.00;102407.19;5097250;28;20059;-56
2023/06/23 22:02:45;;;;;;;23.50;14.05;;;;;;;15.85;100.00;102414.13;5076285;28;20432;-55
2023/06/23 22:05:12;;;;;;;24.75;15.30;;;;;;;15.79;100.00;102419.72;5079194;28;20108;-56
2023/06/23 22:07:38;;;;;;;21.27;14.10;;;;;;;15.73;100.00;102417.28;5089169;28;20051;-55
2023/06/23 22:10:06;;;;;;;25.90;15.80;;;;;;;15.83;100.00;102421.31;5068076;28;20041;-56
2023/06/23 22:12:32;;;;;;;26.85;17.65;;;;;;;15.79;100.00;102419.72;5096033;28;20476;-56
2023/06/23 22:14:59;;;;;;;35.97;18.45;;;;;;;15.82;100.00;102418.72;5097088;28;20047;-55
2023/06/23 22:17:26;;;;;;;29.27;17.55;;;;;;;15.84;100.00;102425.72;5095695;28;20067;-55
2023/06/23 22:19:52;;;;;;;36.55;20.52;;;;;;;15.91;100.00;102423.66;5093435;28;20048;-55
2023/06/23 22:22:19;;;;;;;32.13;20.23;;;;;;;15.89;100.00;102428.19;5092803;28;20054;-55
2023/06/23 22:24:47;;;;;;;43.10;22.27;;;;;;;15.98;100.00;102430.47;5078108;28;20051;-55
2023/06/23 22:27:14;;;;;;;39.00;22.25;;;;;;;16.00;100.00;102435.75;5081532;28;20040;-55
2023/06/23 22:29:41;;;;;;;37.05;22.10;;;;;;;15.93;100.00;102444.00;5070130;28;20610;-55
2023/06/23 22:32:08;;;;;;;40.58;24.98;;;;;;;16.04;100.00;102440.03;5070520;28;20128;-55
2023/06/23 22:34:34;;;;;;;36.50;23.15;;;;;;;16.10;100.00;102456.66;5094313;28;20062;-55
2023/06/23 22:37:01;;;;;;;48.00;25.05;;;;;;;16.12;100.00;102448.56;5083005;28;20072;-55
2023/06/23 22:39:27;;;;;;;42.45;23.60;;;;;;;16.16;100.00;102450.16;5075116;28;20047;-55
2023/06/23 22:41:54;;;;;;;45.78;25.55;;;;;;;16.19;100.00;102471.38;5084287;28;20601;-55
2023/06/23 22:44:21;;;;;;;48.55;26.48;;;;;;;16.21;100.00;102474.84;5090030;28;20044;-55
2023/06/23 22:46:47;;;;;;;55.25;28.88;;;;;;;16.24;100.00;102495.22;5094455;28;20127;-55
2023/06/23 22:49:14;;;;;;;51.90;27.95;;;;;;;16.27;100.00;102495.09;5100070;28;20083;-55
2023/06/23 22:51:40;;;;;;;52.17;28.20;;;;;;;16.26;100.00;102520.88;5094302;28;20156;-55
2023/06/23 22:54:07;;;;;;;51.80;28.48;;;;;;;16.26;100.00;102536.88;5102306;28;20114;-55
2023/06/23 22:56:34;;;;;;;56.13;32.30;;;;;;;16.25;100.00;102529.84;5092871;28;20054;-54
2023/06/23 22:59:02;;;;;;;54.35;29.50;;;;;;;16.27;100.00;102533.28;5106206;28;20083;-54
2023/06/23 23:01:28;;;;;;;50.95;28.80;;;;;;;16.23;100.00;102539.72;5108727;28;20139;-55
2023/06/23 23:03:55;;;;;;;57.17;31.63;;;;;;;16.22;100.00;102537.97;5095157;28;20043;-55
2023/06/23 23:06:22;;;;;;;65.28;33.55;;;;;;;16.23;100.00;102538.81;5096794;28;20055;-55
2023/06/23 23:08:48;;;;;;;65.97;34.40;;;;;;;16.19;100.00;102529.22;5082249;28;20131;-55
2023/06/23 23:11:15;;;;;;;68.15;34.58;;;;;;;16.17;100.00;102537.28;5095175;28;20052;-55
2023/06/23 23:13:42;;;;;;;66.13;34.97;;;;;;;16.17;100.00;102547.94;5104186;28;20048;-55
2023/06/23 23:16:08;;;;;;;60.63;32.50;;;;;;;16.14;100.00;102564.09;5109807;27;20059;-55
2023/06/23 23:18:35;;;;;;;69.93;33.92;;;;;;;16.13;100.00;102543.66;5102665;28;20907;-55
2023/06/23 23:21:01;;;;;;;60.47;32.80;;;;;;;16.06;100.00;102544.84;5100009;28;20044;-55
2023/06/23 23:23:33;;;;;;;59.08;33.03;;;;;;;16.02;100.00;102559.22;5088462;28;20132;-55
2023/06/23 23:26:03;;;;;;;65.35;36.03;;;;;;;15.99;100.00;102564.69;5100561;28;20086;-55
2023/06/23 23:28:30;;;;;;;62.13;34.97;;;;;;;15.95;100.00;102554.16;5093977;28;20087;-55
2023/06/23 23:30:57;;;;;;;77.22;38.72;;;;;;;16.06;100.00;102569.72;5091366;28;20430;-55
2023/06/23 23:33:24;;;;;;;71.13;37.10;;;;;;;16.03;100.00;102558.31;5107876;28;20364;-55
2023/06/23 23:35:50;;;;;;;78.88;39.75;;;;;;;16.02;100.00;102559.22;5098373;28;20043;-55
2023/06/23 23:38:17;;;;;;;77.75;39.47;;;;;;;16.05;100.00;102553.78;5104141;28;20150;-55
2023/06/23 23:40:43;;;;;;;85.10;41.75;;;;;;;16.06;100.00;102560.84;5105794;28;20091;-55
2023/06/23 23:43:10;;;;;;;86.03;42.00;;;;;;;16.05;100.00;102561.78;5095245;28;20083;-55
2023/06/23 23:45:37;;;;;;;84.53;41.67;;;;;;;16.03;100.00;102576.97;5107294;28;20043;-55
2023/06/23 23:48:03;;;;;;;90.75;44.50;;;;;;;16.03;100.00;102560.97;5098116;28;20054;-55
2023/06/23 23:50:30;;;;;;;87.35;41.10;;;;;;;15.95;100.00;102564.81;5114555;28;20134;-55
2023/06/23 23:52:58;;;;;;;85.03;41.03;;;;;;;15.90;100.00;102588.09;5077487;28;20135;-55
2023/06/23 23:55:25;;;;;;;87.38;42.70;;;;;;;15.94;100.00;102602.22;5093415;28;20063;-55
2023/06/23 23:57:52;;;;;;;82.13;41.25;;;;;;;15.92;100.00;102590.72;5102776;28;20432;-55
